Time;durP1;ratioP1;P1;durP2;ratioP2;P2;SDS_P1;SDS_P2;PMS_P1;PMS_P2;Temp;Humidity;BMP_temperature;BMP_pressure;BME280_temperature;BME280_humidity;BME280_pressure;Samples;Min_cycle;Max_cycle;Signal;HPM_P1;HPM_P2
2023/01/30 00:00:30;;;;;;;38.70;24.33;;;;;;;;;;5068056;28;20044;-61
2023/01/30 00:02:56;;;;;;;39.50;24.57;;;;;;;;;;5068008;28;20040;-61
2023/01/30 00:05:22;;;;;;;42.47;24.57;;;;;;;;;;5069461;28;20063;-61
2023/01/30 00:07:48;;;;;;;38.47;25.70;;;;;;;;;;5069410;28;20033;-61
2023/01/30 00:10:14;;;;;;;42.13;26.03;;;;;;;;;;5070235;28;20041;-60
2023/01/30 00:12:40;;;;;;;40.93;23.40;;;;;;;;;;5071419;28;20041;-60
2023/01/30 00:15:06;;;;;;;40.60;24.87;;;;;;;;;;5052540;28;20128;-61
2023/01/30 00:17:32;;;;;;;38.93;24.77;;;;;;;;;;5066531;28;20127;-60
2023/01/30 00:19:58;;;;;;;40.53;26.63;;;;;;;;;;5073145;28;20576;-61
2023/01/30 00:22:24;;;;;;;42.10;25.10;;;;;;;;;;5073150;28;20055;-61
2023/01/30 00:24:50;;;;;;;41.60;25.80;;;;;;;;;;5071661;28;20127;-61
2023/01/30 00:27:17;;;;;;;44.17;28.13;;;;;;;;;;5072631;28;21128;-61
2023/01/30 00:29:43;;;;;;;50.80;25.93;;;;;;;;;;5071359;28;20142;-61
2023/01/30 00:32:09;;;;;;;41.33;28.13;;;;;;;;;;5072756;28;20048;-61
2023/01/30 00:34:35;;;;;;;37.93;26.43;;;;;;;;;;5071099;28;20487;-61
2023/01/30 00:37:01;;;;;;;40.10;25.63;;;;;;;;;;5071661;28;20032;-61
2023/01/30 00:39:27;;;;;;;38.90;24.67;;;;;;;;;;5072762;28;20045;-61
2023/01/30 00:47:22;;;;;;;36.77;26.63;;;;;;;;;;5072706;28;20415;-61
2023/01/30 00:49:48;;;;;;;40.03;23.40;;;;;;;;;;5072764;28;20084;-61
2023/01/30 00:52:14;;;;;;;40.63;25.50;;;;;;;;;;5072210;28;20129;-61
2023/01/30 00:54:40;;;;;;;36.17;23.63;;;;;;;;;;5070116;28;20548;-61
2023/01/30 00:57:06;;;;;;;45.00;24.70;;;;;;;;;;5052415;28;20481;-61
2023/01/30 00:59:32;;;;;;;43.87;23.67;;;;;;;;;;5052411;28;20426;-61
2023/01/30 01:01:59;;;;;;;38.17;24.57;;;;;;;;;;5052386;28;20049;-60
2023/01/30 01:04:25;;;;;;;36.30;25.40;;;;;;;;;;5051865;28;20045;-61
2023/01/30 01:06:51;;;;;;;42.80;22.87;;;;;;;;;;5060139;28;20047;-61
2023/01/30 01:09:17;;;;;;;37.73;25.93;;;;;;;;;;5072324;28;20485;-61
2023/01/30 01:11:43;;;;;;;33.57;20.63;;;;;;;;;;5072676;28;20056;-61
2023/01/30 01:14:09;;;;;;;45.77;23.83;;;;;;;;;;5071787;28;20036;-61
2023/01/30 01:16:36;;;;;;;42.50;23.87;;;;;;;;;;5068497;28;20552;-61
2023/01/30 01:19:02;;;;;;;46.87;25.90;;;;;;;;;;5051943;28;20049;-61
2023/01/30 01:21:28;;;;;;;55.57;25.17;;;;;;;;;;5051571;28;20106;-63
2023/01/30 01:23:56;;;;;;;52.43;27.07;;;;;;;;;;5051598;28;20049;-62
2023/01/30 01:26:22;;;;;;;55.63;27.37;;;;;;;;;;5050622;28;20045;-64
2023/01/30 01:28:48;;;;;;;67.43;29.67;;;;;;;;;;5054718;28;20080;-64
2023/01/30 01:31:16;;;;;;;57.47;27.17;;;;;;;;;;5070447;28;20466;-64
2023/01/30 01:33:42;;;;;;;78.17;28.43;;;;;;;;;;5061133;28;20451;-64
2023/01/30 01:36:08;;;;;;;54.77;25.57;;;;;;;;;;5050012;28;20049;-64
2023/01/30 01:38:34;;;;;;;57.57;26.73;;;;;;;;;;5067601;28;20044;-64
2023/01/30 01:41:00;;;;;;;62.63;24.07;;;;;;;;;;5071240;28;20044;-64
2023/01/30 01:43:27;;;;;;;58.93;24.90;;;;;;;;;;5070631;28;20751;-64
2023/01/30 01:45:55;;;;;;;56.40;24.60;;;;;;;;;;5071463;28;20037;-65
2023/01/30 01:48:27;;;;;;;35.20;17.33;;;;;;;;;;5069454;28;20139;-65
2023/01/30 01:50:56;;;;;;;41.13;21.23;;;;;;;;;;5069966;28;20498;-65
2023/01/30 01:53:25;;;;;;;50.67;20.03;;;;;;;;;;5071231;28;20054;-64
2023/01/30 01:55:53;;;;;;;52.07;19.87;;;;;;;;;;5071324;28;20498;-64
2023/01/30 01:58:22;;;;;;;40.70;17.03;;;;;;;;;;5068767;28;20037;-65
2023/01/30 02:00:49;;;;;;;33.70;17.53;;;;;;;;;;5069937;28;20070;-65
2023/01/30 02:03:16;;;;;;;40.67;17.60;;;;;;;;;;5071299;28;20051;-65
2023/01/30 02:05:45;;;;;;;31.30;15.57;;;;;;;;;;5071227;28;20047;-65
2023/01/30 02:08:16;;;;;;;42.23;16.33;;;;;;;;;;5069798;28;20044;-65
2023/01/30 02:11:04;;;;;;;33.17;16.03;;;;;;;;;;5070884;28;20062;-65
2023/01/30 02:13:31;;;;;;;27.97;12.47;;;;;;;;;;5071096;28;20102;-65
2023/01/30 02:15:58;;;;;;;33.37;12.67;;;;;;;;;;5069836;28;20044;-66
2023/01/30 02:18:24;;;;;;;27.90;12.80;;;;;;;;;;5051418;28;20055;-65
2023/01/30 02:20:53;;;;;;;34.30;15.13;;;;;;;;;;5070743;28;20136;-65
2023/01/30 02:23:19;;;;;;;26.37;10.63;;;;;;;;;;5070564;28;20044;-64
2023/01/30 02:26:04;;;;;;;26.03;10.43;;;;;;;;;;5070864;28;20132;-65
2023/01/30 02:28:33;;;;;;;21.53;10.53;;;;;;;;;;5068986;28;20091;-64
2023/01/30 02:31:22;;;;;;;24.13;10.57;;;;;;;;;;5070125;28;20044;-65
2023/01/30 02:33:57;;;;;;;26.60;10.40;;;;;;;;;;5069999;28;20047;-65
2023/01/30 02:36:29;;;;;;;23.27;9.30;;;;;;;;;;5070163;28;20044;-65
2023/01/30 02:39:13;;;;;;;23.60;10.57;;;;;;;;;;5052265;28;20040;-65
2023/01/30 02:41:48;;;;;;;27.80;9.60;;;;;;;;;;5051303;28;20048;-65
2023/01/30 02:44:24;;;;;;;22.80;8.10;;;;;;;;;;5048660;28;20080;-65
2023/01/30 02:47:02;;;;;;;22.77;8.27;;;;;;;;;;5050431;28;20416;-65
2023/01/30 02:49:31;;;;;;;22.27;9.10;;;;;;;;;;5050138;28;20191;-65
2023/01/30 02:51:59;;;;;;;24.80;8.53;;;;;;;;;;5050202;28;20053;-65
2023/01/30 02:54:25;;;;;;;21.57;8.00;;;;;;;;;;5050349;28;20048;-65
2023/01/30 02:56:53;;;;;;;27.57;8.23;;;;;;;;;;5048924;28;20418;-65
2023/01/30 02:59:23;;;;;;;28.33;8.90;;;;;;;;;;5068176;28;20049;-65
2023/01/30 03:02:08;;;;;;;30.37;8.70;;;;;;;;;;5068400;28;20494;-65
2023/01/30 03:04:49;;;;;;;23.57;9.40;;;;;;;;;;5069431;28;20063;-65
2023/01/30 03:07:37;;;;;;;37.03;11.07;;;;;;;;;;5066618;28;20052;-65
2023/01/30 03:10:15;;;;;;;26.73;9.80;;;;;;;;;;5069242;28;20081;-65
2023/01/30 03:12:53;;;;;;;32.77;8.63;;;;;;;;;;5068326;28;20170;-65
2023/01/30 03:15:33;;;;;;;25.30;7.93;;;;;;;;;;5068082;28;20048;-65
2023/01/30 03:18:00;;;;;;;29.07;9.17;;;;;;;;;;5067928;28;20123;-65
2023/01/30 03:20:26;;;;;;;27.23;7.87;;;;;;;;;;5068993;28;20044;-65
2023/01/30 03:22:53;;;;;;;20.03;8.17;;;;;;;;;;5069338;28;20052;-65
2023/01/30 03:25:20;;;;;;;26.73;8.83;;;;;;;;;;5068966;28;20567;-65
2023/01/30 03:27:47;;;;;;;32.30;9.67;;;;;;;;;;5067631;28;20049;-65
2023/01/30 03:30:14;;;;;;;23.13;6.93;;;;;;;;;;5068219;28;20048;-64
2023/01/30 03:32:40;;;;;;;23.67;9.27;;;;;;;;;;5064144;28;20060;-65
2023/01/30 03:35:06;;;;;;;22.13;7.43;;;;;;;;;;5048609;28;20042;-65
2023/01/30 03:37:32;;;;;;;30.13;8.03;;;;;;;;;;5051876;28;20072;-64
2023/01/30 03:39:58;;;;;;;19.77;7.00;;;;;;;;;;5069175;28;20052;-65
2023/01/30 03:42:24;;;;;;;21.93;6.40;;;;;;;;;;5051286;28;20052;-65
2023/01/30 03:44:50;;;;;;;28.20;8.63;;;;;;;;;;5068111;28;20387;-65
2023/01/30 03:47:16;;;;;;;22.57;7.40;;;;;;;;;;5071707;28;20047;-65
2023/01/30 03:49:42;;;;;;;28.60;7.87;;;;;;;;;;5072945;28;20053;-65
2023/01/30 03:52:08;;;;;;;38.80;8.97;;;;;;;;;;5072998;28;20105;-65
2023/01/30 03:54:34;;;;;;;28.13;8.53;;;;;;;;;;5056806;28;20051;-64
2023/01/30 03:57:00;;;;;;;32.23;8.60;;;;;;;;;;5053587;28;20045;-64
2023/01/30 03:59:26;;;;;;;30.17;8.60;;;;;;;;;;5070477;28;20122;-64
2023/01/30 04:01:52;;;;;;;32.03;8.90;;;;;;;;;;5073032;28;20541;-64
2023/01/30 04:04:18;;;;;;;31.17;8.97;;;;;;;;;;5071134;28;20045;-64
2023/01/30 04:06:44;;;;;;;23.90;7.60;;;;;;;;;;5072925;28;20047;-64
2023/01/30 04:09:10;;;;;;;27.17;7.57;;;;;;;;;;5071109;28;20040;-64
2023/01/30 04:11:36;;;;;;;27.33;7.03;;;;;;;;;;5071181;28;20075;-64
2023/01/30 04:14:02;;;;;;;30.23;6.77;;;;;;;;;;5072780;28;20045;-64
2023/01/30 04:16:28;;;;;;;38.53;7.60;;;;;;;;;;5072831;28;20044;-64
2023/01/30 04:18:54;;;;;;;20.33;7.17;;;;;;;;;;5071055;28;20044;-64
2023/01/30 04:21:20;;;;;;;26.80;7.07;;;;;;;;;;5071991;28;20045;-65
2023/01/30 04:23:46;;;;;;;27.40;8.33;;;;;;;;;;5072523;28;20495;-64
2023/01/30 04:26:12;;;;;;;33.47;6.60;;;;;;;;;;5049766;28;20045;-64
2023/01/30 04:28:39;;;;;;;34.73;7.83;;;;;;;;;;5062408;28;20087;-64
2023/01/30 04:31:05;;;;;;;23.43;6.33;;;;;;;;;;5071573;28;20040;-64
2023/01/30 04:33:34;;;;;;;37.93;6.73;;;;;;;;;;5071379;28;20049;-64
2023/01/30 04:36:02;;;;;;;26.43;5.63;;;;;;;;;;5070590;28;20044;-64
2023/01/30 04:38:29;;;;;;;21.83;6.27;;;;;;;;;;5069841;28;20072;-65
2023/01/30 04:40:55;;;;;;;27.23;5.97;;;;;;;;;;5071283;28;20086;-65
2023/01/30 04:43:22;;;;;;;25.03;6.43;;;;;;;;;;5071657;28;20129;-64
2023/01/30 04:45:49;;;;;;;31.57;8.57;;;;;;;;;;5071262;28;20044;-64
2023/01/30 04:48:16;;;;;;;28.97;8.37;;;;;;;;;;5070289;28;20049;-65
2023/01/30 04:50:43;;;;;;;28.67;6.50;;;;;;;;;;5070917;28;20044;-64
2023/01/30 04:53:09;;;;;;;21.80;4.73;;;;;;;;;;5070953;28;20101;-63
2023/01/30 04:55:35;;;;;;;26.07;5.53;;;;;;;;;;5069593;28;20056;-64
2023/01/30 04:58:01;;;;;;;34.70;7.20;;;;;;;;;;5068498;28;20051;-64
2023/01/30 05:00:28;;;;;;;38.13;7.47;;;;;;;;;;5071019;28;20049;-64
2023/01/30 05:02:54;;;;;;;24.23;5.17;;;;;;;;;;5070289;28;20056;-64
2023/01/30 05:05:24;;;;;;;25.70;5.27;;;;;;;;;;5071320;28;20646;-64
2023/01/30 05:07:50;;;;;;;26.90;4.97;;;;;;;;;;5066665;28;20041;-64
2023/01/30 05:10:16;;;;;;;27.53;6.27;;;;;;;;;;5051248;28;20048;-65
2023/01/30 05:12:42;;;;;;;29.70;4.30;;;;;;;;;;5051231;28;20128;-64
2023/01/30 05:15:08;;;;;;;22.47;5.03;;;;;;;;;;5049553;28;20041;-64
2023/01/30 05:17:35;;;;;;;21.37;5.57;;;;;;;;;;5050957;28;20088;-64
2023/01/30 05:20:01;;;;;;;17.33;3.90;;;;;;;;;;5051585;28;20402;-65
2023/01/30 05:22:27;;;;;;;22.53;5.73;;;;;;;;;;5051139;28;20103;-65
2023/01/30 05:24:53;;;;;;;29.03;7.00;;;;;;;;;;5051257;28;20045;-64
2023/01/30 05:27:19;;;;;;;28.93;4.83;;;;;;;;;;5050830;28;20056;-65
2023/01/30 05:29:45;;;;;;;34.97;7.50;;;;;;;;;;5070709;28;20127;-64
2023/01/30 05:32:15;;;;;;;23.63;5.70;;;;;;;;;;5070788;28;20149;-64
2023/01/30 05:34:41;;;;;;;24.30;4.50;;;;;;;;;;5070721;28;20041;-64
2023/01/30 05:37:07;;;;;;;26.87;4.83;;;;;;;;;;5069314;28;20140;-64
2023/01/30 05:39:33;;;;;;;39.00;6.67;;;;;;;;;;5051163;28;20136;-64
2023/01/30 05:41:59;;;;;;;35.93;5.50;;;;;;;;;;5050746;28;20045;-64
2023/01/30 05:44:25;;;;;;;33.33;5.60;;;;;;;;;;5059782;28;20052;-65
2023/01/30 05:46:51;;;;;;;36.13;5.13;;;;;;;;;;5070235;28;20048;-64
2023/01/30 05:49:17;;;;;;;29.50;4.97;;;;;;;;;;5050546;28;20055;-65
2023/01/30 05:51:43;;;;;;;38.90;6.07;;;;;;;;;;5048672;28;20057;-64
2023/01/30 05:54:09;;;;;;;38.23;6.53;;;;;;;;;;5048308;28;20559;-65
2023/01/30 05:56:35;;;;;;;25.80;5.93;;;;;;;;;;5046978;28;20095;-65
2023/01/30 05:59:02;;;;;;;34.53;5.43;;;;;;;;;;5061576;28;20076;-64
2023/01/30 06:01:28;;;;;;;28.63;6.90;;;;;;;;;;5068658;28;20129;-65
2023/01/30 06:03:55;;;;;;;38.43;8.83;;;;;;;;;;5066952;28;20490;-65
2023/01/30 06:06:21;;;;;;;31.97;5.57;;;;;;;;;;5067589;28;20040;-64
2023/01/30 06:08:48;;;;;;;34.70;5.67;;;;;;;;;;5058735;28;20078;-64
2023/01/30 06:11:15;;;;;;;33.67;5.87;;;;;;;;;;5066203;28;20131;-64
2023/01/30 06:13:42;;;;;;;25.10;4.90;;;;;;;;;;5061579;28;20098;-65
2023/01/30 06:16:10;;;;;;;26.00;5.67;;;;;;;;;;5053799;28;20056;-64
2023/01/30 06:18:37;;;;;;;32.30;6.17;;;;;;;;;;5050801;28;20387;-64
2023/01/30 06:21:03;;;;;;;35.87;5.90;;;;;;;;;;5069734;28;20052;-64
2023/01/30 06:23:29;;;;;;;34.67;6.03;;;;;;;;;;5069834;28;20423;-65
2023/01/30 06:25:55;;;;;;;34.63;6.93;;;;;;;;;;5069651;28;20041;-64
2023/01/30 06:28:22;;;;;;;25.90;5.23;;;;;;;;;;5063906;28;20037;-64
2023/01/30 06:30:48;;;;;;;26.77;4.97;;;;;;;;;;5059289;28;20044;-64
2023/01/30 06:33:14;;;;;;;22.50;5.57;;;;;;;;;;5069274;28;20044;-64
2023/01/30 06:35:41;;;;;;;29.70;6.80;;;;;;;;;;5069496;28;20044;-64
2023/01/30 06:38:12;;;;;;;29.23;4.47;;;;;;;;;;5068352;28;20098;-64
2023/01/30 06:40:39;;;;;;;32.57;5.83;;;;;;;;;;5069592;28;20049;-64
2023/01/30 06:43:05;;;;;;;22.87;5.80;;;;;;;;;;5069010;28;20052;-65
2023/01/30 06:45:31;;;;;;;30.37;4.37;;;;;;;;;;5055539;28;20076;-65
2023/01/30 06:47:57;;;;;;;37.33;4.90;;;;;;;;;;5049049;28;20099;-64
2023/01/30 06:50:25;;;;;;;45.70;6.57;;;;;;;;;;5049256;28;20069;-64
2023/01/30 06:52:51;;;;;;;27.00;5.83;;;;;;;;;;5048346;28;20041;-64
2023/01/30 06:55:19;;;;;;;27.77;5.10;;;;;;;;;;5049098;28;20088;-64
2023/01/30 06:57:45;;;;;;;34.30;6.23;;;;;;;;;;5048759;28;20470;-64
2023/01/30 07:00:13;;;;;;;39.33;5.37;;;;;;;;;;5048614;28;20095;-64
2023/01/30 07:02:39;;;;;;;28.10;6.20;;;;;;;;;;5051954;28;20499;-64
2023/01/30 07:05:06;;;;;;;34.47;6.10;;;;;;;;;;5048315;28;20052;-64
2023/01/30 07:07:32;;;;;;;25.63;4.23;;;;;;;;;;5048819;28;20118;-64
2023/01/30 07:09:59;;;;;;;24.70;4.87;;;;;;;;;;5048861;28;20044;-65
2023/01/30 07:12:25;;;;;;;29.97;5.67;;;;;;;;;;5048697;28;20041;-64
2023/01/30 07:14:52;;;;;;;27.40;4.47;;;;;;;;;;5048321;28;20044;-64
2023/01/30 07:17:18;;;;;;;27.37;4.87;;;;;;;;;;5048657;28;20045;-64
2023/01/30 07:19:44;;;;;;;36.70;4.83;;;;;;;;;;5048699;28;20127;-65
2023/01/30 07:22:10;;;;;;;30.50;4.33;;;;;;;;;;5048414;28;20045;-64
2023/01/30 07:24:38;;;;;;;29.50;5.43;;;;;;;;;;5048859;28;20445;-64
2023/01/30 07:27:06;;;;;;;31.80;5.00;;;;;;;;;;5053760;28;20053;-64
2023/01/30 07:29:31;;;;;;;29.43;5.13;;;;;;;;;;5058146;28;20468;-64
2023/01/30 07:31:57;;;;;;;26.33;4.63;;;;;;;;;;5066399;28;20086;-64
2023/01/30 07:34:23;;;;;;;27.27;4.77;;;;;;;;;;5066632;28;20041;-64
2023/01/30 07:36:49;;;;;;;32.60;5.23;;;;;;;;;;5067954;28;20051;-64
2023/01/30 07:39:15;;;;;;;33.73;5.83;;;;;;;;;;5067037;28;20621;-64
2023/01/30 07:41:41;;;;;;;26.77;5.30;;;;;;;;;;5066813;28;20048;-64
2023/01/30 07:44:08;;;;;;;30.70;5.97;;;;;;;;;;5067936;28;21052;-64
2023/01/30 07:46:34;;;;;;;25.63;5.63;;;;;;;;;;5065352;28;20102;-64
2023/01/30 07:49:00;;;;;;;21.83;4.07;;;;;;;;;;5065558;28;20048;-64
2023/01/30 07:51:27;;;;;;;30.13;4.80;;;;;;;;;;5068106;28;20413;-64
2023/01/30 07:53:53;;;;;;;25.83;4.63;;;;;;;;;;5066940;28;20049;-64
2023/01/30 07:56:22;;;;;;;28.57;4.90;;;;;;;;;;5067412;28;20052;-64
2023/01/30 07:58:49;;;;;;;33.03;5.93;;;;;;;;;;5067667;28;20554;-64
2023/01/30 08:01:16;;;;;;;20.07;4.30;;;;;;;;;;5065917;28;20067;-64
2023/01/30 08:03:43;;;;;;;28.70;5.43;;;;;;;;;;5067646;28;20078;-64
2023/01/30 08:06:09;;;;;;;32.83;5.30;;;;;;;;;;5066451;28;20045;-64
2023/01/30 08:08:35;;;;;;;24.87;3.77;;;;;;;;;;5056661;28;20098;-64
2023/01/30 08:11:01;;;;;;;34.30;5.57;;;;;;;;;;5066077;28;20528;-64
2023/01/30 08:13:27;;;;;;;31.53;5.50;;;;;;;;;;5064985;28;20059;-64
2023/01/30 08:15:53;;;;;;;34.40;4.70;;;;;;;;;;5067463;28;20043;-64
2023/01/30 08:18:19;;;;;;;35.60;5.57;;;;;;;;;;5066424;28;20407;-64
2023/01/30 08:20:45;;;;;;;33.60;5.03;;;;;;;;;;5068144;28;20040;-64
2023/01/30 08:23:11;;;;;;;29.50;4.80;;;;;;;;;;5066443;28;20415;-64
2023/01/30 08:25:37;;;;;;;29.63;6.07;;;;;;;;;;5067214;28;20041;-64
2023/01/30 08:28:04;;;;;;;32.03;5.23;;;;;;;;;;5066700;28;20044;-64
2023/01/30 08:30:30;;;;;;;32.37;4.20;;;;;;;;;;5067387;28;20044;-64
2023/01/30 08:32:57;;;;;;;28.73;4.70;;;;;;;;;;5070994;28;20040;-64
2023/01/30 08:35:23;;;;;;;36.40;4.90;;;;;;;;;;5070877;28;20474;-64
2023/01/30 08:37:49;;;;;;;24.50;4.73;;;;;;;;;;5069071;28;20103;-64
2023/01/30 08:40:15;;;;;;;34.10;8.20;;;;;;;;;;5070641;28;20073;-64
2023/01/30 08:42:44;;;;;;;35.47;6.77;;;;;;;;;;5071416;28;20045;-64
2023/01/30 08:45:10;;;;;;;30.83;5.27;;;;;;;;;;5054849;28;20061;-63
2023/01/30 08:47:36;;;;;;;33.57;7.03;;;;;;;;;;5069470;28;20105;-63
2023/01/30 08:50:04;;;;;;;27.37;4.43;;;;;;;;;;5068714;28;20468;-63
2023/01/30 08:52:31;;;;;;;29.73;5.30;;;;;;;;;;5067788;28;20042;-64
2023/01/30 08:54:57;;;;;;;26.30;5.00;;;;;;;;;;5064878;28;20047;-64
2023/01/30 08:57:25;;;;;;;33.67;5.80;;;;;;;;;;5071273;28;20045;-63
2023/01/30 08:59:54;;;;;;;29.90;5.80;;;;;;;;;;5069935;28;20160;-63
2023/01/30 09:02:21;;;;;;;31.87;6.53;;;;;;;;;;5064041;28;20048;-63
2023/01/30 09:04:46;;;;;;;28.63;5.47;;;;;;;;;;5058946;28;20040;-63
2023/01/30 09:07:12;;;;;;;20.87;4.80;;;;;;;;;;5058727;28;20425;-63
2023/01/30 09:09:38;;;;;;;25.83;5.33;;;;;;;;;;5056663;28;20077;-64
2023/01/30 09:12:05;;;;;;;24.37;4.53;;;;;;;;;;5056363;28;20131;-64
2023/01/30 09:14:31;;;;;;;28.50;5.37;;;;;;;;;;5049846;28;20084;-63
2023/01/30 09:16:57;;;;;;;26.43;5.73;;;;;;;;;;5057409;28;20434;-63
2023/01/30 09:19:27;;;;;;;26.63;4.90;;;;;;;;;;5057372;28;20041;-64
2023/01/30 09:21:53;;;;;;;29.90;7.23;;;;;;;;;;5069945;28;20414;-63
2023/01/30 09:24:20;;;;;;;27.13;6.63;;;;;;;;;;5070451;28;20048;-64
2023/01/30 09:26:46;;;;;;;26.37;5.10;;;;;;;;;;5069403;28;20049;-63
2023/01/30 09:29:13;;;;;;;19.60;4.03;;;;;;;;;;5070521;28;20055;-64
2023/01/30 09:31:39;;;;;;;25.17;4.97;;;;;;;;;;5067646;28;20040;-63
2023/01/30 09:34:06;;;;;;;29.57;4.77;;;;;;;;;;5070418;28;20527;-63
2023/01/30 09:36:32;;;;;;;24.77;4.37;;;;;;;;;;5069877;28;20041;-63
2023/01/30 09:38:58;;;;;;;26.53;4.70;;;;;;;;;;5069667;28;20047;-63
2023/01/30 09:41:37;;;;;;;33.13;5.40;;;;;;;;;;5070257;28;20045;-64
2023/01/30 09:44:03;;;;;;;25.70;4.53;;;;;;;;;;5070203;28;20044;-63
2023/01/30 09:46:38;;;;;;;28.90;5.70;;;;;;;;;;5070096;28;20044;-64
2023/01/30 09:49:10;;;;;;;27.20;6.30;;;;;;;;;;5069429;28;20060;-63
2023/01/30 09:51:42;;;;;;;29.43;6.10;;;;;;;;;;5069965;28;20057;-63
2023/01/30 09:54:19;;;;;;;37.17;5.97;;;;;;;;;;5070032;28;20098;-64
2023/01/30 09:56:45;;;;;;;33.70;6.20;;;;;;;;;;5069778;28;20127;-63
2023/01/30 09:59:17;;;;;;;31.03;6.63;;;;;;;;;;5068518;28;20044;-63
2023/01/30 10:01:59;;;;;;;22.07;4.50;;;;;;;;;;5069780;28;20041;-63
2023/01/30 10:04:43;;;;;;;28.33;5.80;;;;;;;;;;5069253;28;20052;-63
2023/01/30 10:07:28;;;;;;;28.92;5.00;;;;;;;;;;5068435;28;20053;-63
2023/01/30 10:10:03;;;;;;;21.80;5.00;;;;;;;;;;5069906;28;20048;-64
2023/01/30 10:12:29;;;;;;;29.67;5.40;;;;;;;;;;5056953;28;20060;-63
2023/01/30 10:15:19;;;;;;;24.47;5.20;;;;;;;;;;5049677;28;20053;-63
2023/01/30 10:18:07;;;;;;;25.47;5.60;;;;;;;;;;5048468;28;20084;-63
2023/01/30 10:20:45;;;;;;;26.70;4.17;;;;;;;;;;5049157;28;20088;-63
2023/01/30 10:23:17;;;;;;;35.40;6.13;;;;;;;;;;5049478;28;20060;-64
2023/01/30 10:25:46;;;;;;;23.67;4.90;;;;;;;;;;5049205;28;20337;-63
2023/01/30 10:28:18;;;;;;;29.00;5.63;;;;;;;;;;5048704;28;20047;-63
2023/01/30 10:30:45;;;;;;;26.27;6.40;;;;;;;;;;5049145;28;20053;-63
2023/01/30 10:33:39;;;;;;;27.10;4.73;;;;;;;;;;5049005;28;20051;-63
2023/01/30 10:36:05;;;;;;;28.92;4.95;;;;;;;;;;5048760;28;20080;-63
2023/01/30 10:38:34;;;;;;;26.50;4.83;;;;;;;;;;5048766;28;20045;-63
2023/01/30 10:41:07;;;;;;;30.23;5.70;;;;;;;;;;5049257;28;20500;-65
2023/01/30 10:43:33;;;;;;;26.90;6.90;;;;;;;;;;5048421;28;20464;-62
2023/01/30 10:46:17;;;;;;;30.37;5.13;;;;;;;;;;5049016;28;20064;-63
2023/01/30 10:48:49;;;;;;;28.80;5.77;;;;;;;;;;5048939;28;20447;-63
2023/01/30 10:51:27;;;;;;;28.43;6.13;;;;;;;;;;5048775;28;20068;-63
2023/01/30 10:54:00;;;;;;;26.63;5.33;;;;;;;;;;5046705;28;20048;-63
2023/01/30 10:56:33;;;;;;;19.95;3.92;;;;;;;;;;5048736;28;20099;-65
2023/01/30 10:59:17;;;;;;;31.57;6.00;;;;;;;;;;5049011;28;20049;-64
2023/01/30 11:01:44;;;;;;;28.53;4.33;;;;;;;;;;5048837;28;20287;-64
2023/01/30 11:04:24;;;;;;;17.73;4.80;;;;;;;;;;5046664;28;20112;-64
2023/01/30 11:06:52;;;;;;;26.83;5.40;;;;;;;;;;5048464;28;20067;-61
2023/01/30 11:09:18;;;;;;;18.97;3.97;;;;;;;;;;5058622;28;20037;-61
2023/01/30 11:11:54;;;;;;;21.53;4.83;;;;;;;;;;5067932;28;20052;-61
2023/01/30 11:14:20;;;;;;;39.43;7.37;;;;;;;;;;5066900;28;20048;-61
2023/01/30 11:16:48;;;;;;;27.03;5.67;;;;;;;;;;5055953;28;20040;-62
2023/01/30 11:19:16;;;;;;;27.97;5.80;;;;;;;;;;5062355;28;20052;-61
2023/01/30 11:21:43;;;;;;;26.73;5.70;;;;;;;;;;5067874;28;20395;-61
2023/01/30 11:24:18;;;;;;;22.67;5.47;;;;;;;;;;5067852;28;20044;-61
2023/01/30 11:26:45;;;;;;;28.53;6.03;;;;;;;;;;5066949;28;20151;-61
2023/01/30 11:29:34;;;;;;;31.97;7.13;;;;;;;;;;5066507;28;20499;-61
2023/01/30 11:32:02;;;;;;;38.40;7.57;;;;;;;;;;5062786;28;20041;-61
2023/01/30 11:34:28;;;;;;;28.40;5.03;;;;;;;;;;5053406;28;20044;-61
2023/01/30 11:37:11;;;;;;;39.43;6.27;;;;;;;;;;5056168;28;20126;-61
2023/01/30 11:39:37;;;;;;;37.40;5.53;;;;;;;;;;5050047;28;20385;-61
2023/01/30 11:42:03;;;;;;;35.00;6.20;;;;;;;;;;5062226;28;20063;-61
2023/01/30 11:44:31;;;;;;;23.60;5.03;;;;;;;;;;5057924;28;20400;-61
2023/01/30 11:46:58;;;;;;;28.07;4.37;;;;;;;;;;5050447;28;20044;-61
2023/01/30 11:49:28;;;;;;;37.93;6.47;;;;;;;;;;5048754;28;20124;-62
2023/01/30 11:51:54;;;;;;;55.73;6.30;;;;;;;;;;5064266;28;20407;-64
2023/01/30 11:54:23;;;;;;;45.73;8.33;;;;;;;;;;5069973;28;20052;-64
2023/01/30 11:56:54;;;;;;;38.87;6.67;;;;;;;;;;5066242;28;20040;-64
2023/01/30 11:59:20;;;;;;;37.03;6.07;;;;;;;;;;5066005;28;20127;-65
2023/01/30 12:01:46;;;;;;;33.80;5.70;;;;;;;;;;5065792;28;20048;-65
2023/01/30 12:04:12;;;;;;;31.87;5.90;;;;;;;;;;5053938;28;20044;-65
2023/01/30 12:06:40;;;;;;;38.67;7.30;;;;;;;;;;5068351;28;20037;-65
2023/01/30 12:09:26;;;;;;;35.80;7.17;;;;;;;;;;5069932;28;20087;-65
2023/01/30 12:11:52;;;;;;;30.97;5.77;;;;;;;;;;5071286;28;20048;-62
2023/01/30 12:14:31;;;;;;;41.03;7.40;;;;;;;;;;5070496;28;20109;-65
2023/01/30 12:17:18;;;;;;;18.73;3.60;;;;;;;;;;5067400;28;20168;-64
2023/01/30 12:19:50;;;;;;;22.33;4.00;;;;;;;;;;5058422;28;20106;-64
2023/01/30 12:22:28;;;;;;;21.87;3.10;;;;;;;;;;5062407;28;20052;-64
2023/01/30 12:24:58;;;;;;;25.07;5.17;;;;;;;;;;5067235;28;20517;-65
2023/01/30 12:27:27;;;;;;;27.87;4.83;;;;;;;;;;5071893;28;20060;-64
2023/01/30 12:30:05;;;;;;;42.07;6.30;;;;;;;;;;5070510;28;20044;-64
2023/01/30 12:32:33;;;;;;;32.73;5.37;;;;;;;;;;5058657;28;20411;-65
2023/01/30 12:35:00;;;;;;;29.90;4.80;;;;;;;;;;5059539;28;20036;-65
2023/01/30 12:37:45;;;;;;;25.60;5.73;;;;;;;;;;5066335;28;20101;-65
2023/01/30 12:40:17;;;;;;;20.10;4.87;;;;;;;;;;5060268;28;20136;-65
2023/01/30 12:43:15;;;;;;;19.37;3.07;;;;;;;;;;5059510;28;20360;-65
2023/01/30 12:45:56;;;;;;;16.50;4.03;;;;;;;;;;5055802;28;20419;-64
2023/01/30 12:48:28;;;;;;;19.10;4.07;;;;;;;;;;5060962;28;20057;-64
2023/01/30 12:50:57;;;;;;;16.70;3.17;;;;;;;;;;5056988;28;20052;-64
2023/01/30 12:53:27;;;;;;;14.23;2.80;;;;;;;;;;5068103;28;20040;-65
2023/01/30 12:56:05;;;;;;;14.13;2.43;;;;;;;;;;5069138;28;20102;-64
2023/01/30 12:58:50;;;;;;;20.23;2.60;;;;;;;;;;5068995;28;20434;-64
2023/01/30 13:01:26;;;;;;;11.80;2.30;;;;;;;;;;5050805;28;20147;-65
2023/01/30 13:03:58;;;;;;;14.97;3.47;;;;;;;;;;5069903;28;20426;-65
2023/01/30 13:06:33;;;;;;;19.80;3.47;;;;;;;;;;5064633;28;20403;-65
2023/01/30 13:09:18;;;;;;;14.63;3.87;;;;;;;;;;5069836;28;20040;-65
2023/01/30 13:11:49;;;;;;;15.47;3.90;;;;;;;;;;5070247;28;20607;-64
2023/01/30 13:14:18;;;;;;;17.23;4.13;;;;;;;;;;5070044;28;20052;-65
2023/01/30 13:17:07;;;;;;;20.57;3.87;;;;;;;;;;5059434;28;20053;-65
2023/01/30 13:19:41;;;;;;;17.20;2.80;;;;;;;;;;5060846;28;20064;-64
2023/01/30 13:22:07;;;;;;;27.70;4.43;;;;;;;;;;5070053;28;20037;-65
2023/01/30 13:24:42;;;;;;;19.37;4.17;;;;;;;;;;5068540;28;20052;-65
2023/01/30 13:27:12;;;;;;;21.10;4.13;;;;;;;;;;5068857;28;20810;-64
2023/01/30 13:29:39;;;;;;;24.23;4.20;;;;;;;;;;5068292;28;20460;-64
2023/01/30 13:32:11;;;;;;;20.80;3.40;;;;;;;;;;5069833;28;20052;-64
2023/01/30 13:34:44;;;;;;;21.57;3.97;;;;;;;;;;5067555;28;20048;-65
2023/01/30 13:37:12;;;;;;;24.02;4.72;;;;;;;;;;5069376;28;20044;-65
2023/01/30 13:39:47;;;;;;;24.47;4.63;;;;;;;;;;5069863;28;20047;-64
2023/01/30 13:42:29;;;;;;;27.93;5.43;;;;;;;;;;5062163;28;20128;-64
2023/01/30 13:44:56;;;;;;;22.10;5.13;;;;;;;;;;5069477;28;20530;-64
2023/01/30 13:47:31;;;;;;;29.57;4.80;;;;;;;;;;5066698;28;20049;-65
2023/01/30 13:50:00;;;;;;;27.77;6.00;;;;;;;;;;5062338;28;20053;-65
2023/01/30 13:52:26;;;;;;;28.77;6.63;;;;;;;;;;5065357;28;20056;-64
2023/01/30 13:54:57;;;;;;;32.00;5.03;;;;;;;;;;5069202;28;20091;-64
2023/01/30 13:57:40;;;;;;;30.80;7.97;;;;;;;;;;5069803;28;20409;-64
2023/01/30 14:00:24;;;;;;;28.80;5.00;;;;;;;;;;5067829;28;20133;-64
2023/01/30 14:03:03;;;;;;;24.73;5.63;;;;;;;;;;5068307;28;20056;-64
2023/01/30 14:05:47;;;;;;;34.33;5.57;;;;;;;;;;5059428;28;20072;-64
2023/01/30 14:08:18;;;;;;;36.37;6.33;;;;;;;;;;5049691;28;20045;-64
2023/01/30 14:10:44;;;;;;;34.40;6.33;;;;;;;;;;5053790;28;20585;-64
2023/01/30 14:13:12;;;;;;;31.37;5.57;;;;;;;;;;5056129;28;20049;-64
2023/01/30 14:15:41;;;;;;;28.87;5.47;;;;;;;;;;5049512;28;20041;-64
2023/01/30 14:18:19;;;;;;;39.33;7.03;;;;;;;;;;5065045;28;20051;-64
2023/01/30 14:20:46;;;;;;;34.83;6.07;;;;;;;;;;5068186;28;20052;-64
2023/01/30 14:23:24;;;;;;;34.03;6.43;;;;;;;;;;5068464;28;20098;-64
2023/01/30 14:25:51;;;;;;;33.20;6.27;;;;;;;;;;5057532;28;20079;-64
2023/01/30 14:28:17;;;;;;;29.47;5.87;;;;;;;;;;5049146;28;20045;-64
2023/01/30 14:30:43;;;;;;;30.17;7.63;;;;;;;;;;5048856;28;20482;-64
2023/01/30 14:33:18;;;;;;;30.90;6.30;;;;;;;;;;5049191;28;20124;-64
2023/01/30 14:35:45;;;;;;;29.23;5.17;;;;;;;;;;5048691;28;20144;-64
2023/01/30 14:38:14;;;;;;;29.43;6.33;;;;;;;;;;5048753;28;20424;-64
2023/01/30 14:40:47;;;;;;;39.47;5.50;;;;;;;;;;5052185;28;20053;-64
2023/01/30 14:43:19;;;;;;;30.60;5.22;;;;;;;;;;5048797;28;20499;-64
2023/01/30 14:45:49;;;;;;;31.93;5.83;;;;;;;;;;5049024;28;20067;-64